sensor_id;sensor_type;location;lat;lon;timestamp;temperature;humidity
14331;DHT22;7249;49.376;11.080;2024-02-23T00:02:18;9.00;99.90
14331;DHT22;7249;49.376;11.080;2024-02-23T00:04:44;9.00;99.90
14331;DHT22;7249;49.376;11.080;2024-02-23T00:07:10;9.00;99.90
14331;DHT22;7249;49.376;11.080;2024-02-23T00:09:36;8.90;99.90
14331;DHT22;7249;49.376;11.080;2024-02-23T00:12:02;8.90;99.90
14331;DHT22;7249;49.376;11.080;2024-02-23T00:14:28;8.90;99.90
14331;DHT22;7249;49.376;11.080;2024-02-23T00:16:56;8.90;99.90
14331;DHT22;7249;49.376;11.080;2024-02-23T00:19:22;8.80;99.90
14331;DHT22;7249;49.376;11.080;2024-02-23T00:21:49;8.80;99.90
14331;DHT22;7249;49.376;11.080;2024-02-23T00:24:16;8.70;99.90
14331;DHT22;7249;49.376;11.080;2024-02-23T00:26:43;8.70;99.90
14331;DHT22;7249;49.376;11.080;2024-02-23T00:29:08;8.60;99.90
14331;DHT22;7249;49.376;11.080;2024-02-23T00:31:37;8.60;99.90
14331;DHT22;7249;49.376;11.080;2024-02-23T00:34:03;8.60;99.90
14331;DHT22;7249;49.376;11.080;2024-02-23T00:36:28;8.60;99.90
14331;DHT22;7249;49.376;11.080;2024-02-23T00:38:54;8.60;99.90
14331;DHT22;7249;49.376;11.080;2024-02-23T00:41:20;8.60;99.90
14331;DHT22;7249;49.376;11.080;2024-02-23T00:43:46;8.50;99.90
14331;DHT22;7249;49.376;11.080;2024-02-23T00:46:13;8.50;99.90
14331;DHT22;7249;49.376;11.080;2024-02-23T00:48:40;8.40;99.90
14331;DHT22;7249;49.376;11.080;2024-02-23T00:51:05;8.40;99.90
14331;DHT22;7249;49.376;11.080;2024-02-23T00:53:33;8.40;99.90
14331;DHT22;7249;49.376;11.080;2024-02-23T00:55:58;8.40;99.90
14331;DHT22;7249;49.376;11.080;2024-02-23T00:58:24;8.30;99.90
14331;DHT22;7249;49.376;11.080;2024-02-23T01:00:50;8.30;99.90
14331;DHT22;7249;49.376;11.080;2024-02-23T01:03:15;8.20;99.90
14331;DHT22;7249;49.376;11.080;2024-02-23T01:05:41;8.20;99.90
14331;DHT22;7249;49.376;11.080;2024-02-23T01:08:08;8.10;99.90
14331;DHT22;7249;49.376;11.080;2024-02-23T01:10:34;8.00;99.90
14331;DHT22;7249;49.376;11.080;2024-02-23T01:13:00;7.90;99.90
14331;DHT22;7249;49.376;11.080;2024-02-23T01:15:25;7.90;99.90
14331;DHT22;7249;49.376;11.080;2024-02-23T01:17:51;7.80;99.90
14331;DHT22;7249;49.376;11.080;2024-02-23T01:20:17;7.70;99.90
14331;DHT22;7249;49.376;11.080;2024-02-23T01:22:43;7.70;99.90
14331;DHT22;7249;49.376;11.080;2024-02-23T01:25:09;7.60;99.90
14331;DHT22;7249;49.376;11.080;2024-02-23T01:27:34;7.60;99.90
14331;DHT22;7249;49.376;11.080;2024-02-23T01:30:00;7.60;99.90
14331;DHT22;7249;49.376;11.080;2024-02-23T01:32:26;7.50;99.90
14331;DHT22;7249;49.376;11.080;2024-02-23T01:34:52;7.50;99.90
14331;DHT22;7249;49.376;11.080;2024-02-23T01:37:17;7.50;99.90
14331;DHT22;7249;49.376;11.080;2024-02-23T01:39:43;7.40;99.90
14331;DHT22;7249;49.376;11.080;2024-02-23T01:42:09;7.40;99.90
14331;DHT22;7249;49.376;11.080;2024-02-23T01:44:35;7.30;99.90
14331;DHT22;7249;49.376;11.080;2024-02-23T01:47:01;7.30;99.90
14331;DHT22;7249;49.376;11.080;2024-02-23T01:49:27;7.20;99.90
14331;DHT22;7249;49.376;11.080;2024-02-23T01:52:03;7.20;99.90
14331;DHT22;7249;49.376;11.080;2024-02-23T01:54:30;7.20;99.90
14331;DHT22;7249;49.376;11.080;2024-02-23T01:56:57;7.10;99.90
14331;DHT22;7249;49.376;11.080;2024-02-23T01:59:26;7.20;99.90
14331;DHT22;7249;49.376;11.080;2024-02-23T02:01:53;7.10;99.90
14331;DHT22;7249;49.376;11.080;2024-02-23T02:04:19;7.10;99.90
14331;DHT22;7249;49.376;11.080;2024-02-23T02:06:46;7.10;99.90
14331;DHT22;7249;49.376;11.080;2024-02-23T02:09:12;7.10;99.90
14331;DHT22;7249;49.376;11.080;2024-02-23T02:11:45;7.00;99.90
14331;DHT22;7249;49.376;11.080;2024-02-23T02:14:12;7.00;99.90
14331;DHT22;7249;49.376;11.080;2024-02-23T02:16:38;7.00;99.90
14331;DHT22;7249;49.376;11.080;2024-02-23T02:19:04;6.90;99.90
14331;DHT22;7249;49.376;11.080;2024-02-23T02:21:34;6.90;99.90
14331;DHT22;7249;49.376;11.080;2024-02-23T02:24:00;6.90;99.90
14331;DHT22;7249;49.376;11.080;2024-02-23T02:26:26;6.90;99.90
14331;DHT22;7249;49.376;11.080;2024-02-23T02:28:51;6.80;99.90
14331;DHT22;7249;49.376;11.080;2024-02-23T02:31:18;6.80;99.90
14331;DHT22;7249;49.376;11.080;2024-02-23T02:33:44;6.80;99.90
14331;DHT22;7249;49.376;11.080;2024-02-23T02:36:09;6.90;99.90
14331;DHT22;7249;49.376;11.080;2024-02-23T02:38:37;6.80;99.90
14331;DHT22;7249;49.376;11.080;2024-02-23T02:41:02;6.80;99.90
14331;DHT22;7249;49.376;11.080;2024-02-23T02:43:28;6.80;99.90
14331;DHT22;7249;49.376;11.080;2024-02-23T02:45:54;6.80;99.90
14331;DHT22;7249;49.376;11.080;2024-02-23T02:48:20;6.80;99.90
14331;DHT22;7249;49.376;11.080;2024-02-23T02:50:45;6.70;99.90
14331;DHT22;7249;49.376;11.080;2024-02-23T02:53:11;6.70;99.90
14331;DHT22;7249;49.376;11.080;2024-02-23T02:55:40;6.70;99.90
14331;DHT22;7249;49.376;11.080;2024-02-23T02:58:06;6.70;99.90
14331;DHT22;7249;49.376;11.080;2024-02-23T03:00:32;6.60;99.90
14331;DHT22;7249;49.376;11.080;2024-02-23T03:02:58;6.60;99.90
14331;DHT22;7249;49.376;11.080;2024-02-23T03:05:23;6.60;99.90
14331;DHT22;7249;49.376;11.080;2024-02-23T03:07:49;6.60;99.90
14331;DHT22;7249;49.376;11.080;2024-02-23T03:10:15;6.60;99.90
14331;DHT22;7249;49.376;11.080;2024-02-23T03:12:41;6.60;99.90
14331;DHT22;7249;49.376;11.080;2024-02-23T03:15:07;6.60;99.90
14331;DHT22;7249;49.376;11.080;2024-02-23T03:17:34;6.50;99.90
14331;DHT22;7249;49.376;11.080;2024-02-23T03:19:59;6.50;99.90
14331;DHT22;7249;49.376;11.080;2024-02-23T03:22:25;6.50;99.90
14331;DHT22;7249;49.376;11.080;2024-02-23T03:24:51;6.50;99.90
14331;DHT22;7249;49.376;11.080;2024-02-23T03:27:16;6.50;99.90
14331;DHT22;7249;49.376;11.080;2024-02-23T03:29:42;6.50;99.90
14331;DHT22;7249;49.376;11.080;2024-02-23T03:32:08;6.50;99.90
14331;DHT22;7249;49.376;11.080;2024-02-23T03:34:33;6.50;99.90
14331;DHT22;7249;49.376;11.080;2024-02-23T03:36:59;6.50;99.90
14331;DHT22;7249;49.376;11.080;2024-02-23T03:39:27;6.50;99.90
14331;DHT22;7249;49.376;11.080;2024-02-23T03:41:54;6.50;99.90
14331;DHT22;7249;49.376;11.080;2024-02-23T03:44:19;6.40;99.90
14331;DHT22;7249;49.376;11.080;2024-02-23T03:46:45;6.40;99.90
14331;DHT22;7249;49.376;11.080;2024-02-23T03:49:11;6.40;99.90
14331;DHT22;7249;49.376;11.080;2024-02-23T03:51:37;6.40;99.90
14331;DHT22;7249;49.376;11.080;2024-02-23T03:54:05;6.30;99.90
14331;DHT22;7249;49.376;11.080;2024-02-23T03:56:40;6.30;99.90
14331;DHT22;7249;49.376;11.080;2024-02-23T03:59:07;6.30;99.90
14331;DHT22;7249;49.376;11.080;2024-02-23T04:01:36;6.40;99.90
14331;DHT22;7249;49.376;11.080;2024-02-23T04:04:02;6.40;99.90
14331;DHT22;7249;49.376;11.080;2024-02-23T04:06:28;6.30;99.90
14331;DHT22;7249;49.376;11.080;2024-02-23T04:08:53;6.30;99.90
14331;DHT22;7249;49.376;11.080;2024-02-23T04:11:19;6.20;99.90
14331;DHT22;7249;49.376;11.080;2024-02-23T04:13:45;6.30;99.90
14331;DHT22;7249;49.376;11.080;2024-02-23T04:16:10;6.20;99.90
14331;DHT22;7249;49.376;11.080;2024-02-23T04:18:36;6.20;99.90
14331;DHT22;7249;49.376;11.080;2024-02-23T04:21:02;6.10;99.90
14331;DHT22;7249;49.376;11.080;2024-02-23T04:23:27;6.10;99.90
14331;DHT22;7249;49.376;11.080;2024-02-23T04:25:53;6.10;99.90
14331;DHT22;7249;49.376;11.080;2024-02-23T04:28:19;6.00;99.90
14331;DHT22;7249;49.376;11.080;2024-02-23T04:30:45;6.10;99.90
14331;DHT22;7249;49.376;11.080;2024-02-23T04:33:11;6.10;99.90
14331;DHT22;7249;49.376;11.080;2024-02-23T04:35:36;6.20;99.90
14331;DHT22;7249;49.376;11.080;2024-02-23T04:38:02;6.20;99.90
14331;DHT22;7249;49.376;11.080;2024-02-23T04:40:28;6.10;99.90
14331;DHT22;7249;49.376;11.080;2024-02-23T04:42:54;6.10;99.90
14331;DHT22;7249;49.376;11.080;2024-02-23T04:45:20;6.10;99.90
14331;DHT22;7249;49.376;11.080;2024-02-23T04:47:46;6.00;99.90
14331;DHT22;7249;49.376;11.080;2024-02-23T04:50:14;6.00;99.90
14331;DHT22;7249;49.376;11.080;2024-02-23T04:52:39;6.00;99.90
14331;DHT22;7249;49.376;11.080;2024-02-23T04:55:05;6.00;99.90
14331;DHT22;7249;49.376;11.080;2024-02-23T04:57:32;6.00;99.90
14331;DHT22;7249;49.376;11.080;2024-02-23T04:59:57;6.00;99.90
14331;DHT22;7249;49.376;11.080;2024-02-23T05:02:23;6.00;99.90
14331;DHT22;7249;49.376;11.080;2024-02-23T05:04:49;6.00;99.90
14331;DHT22;7249;49.376;11.080;2024-02-23T05:07:14;5.90;99.90
14331;DHT22;7249;49.376;11.080;2024-02-23T05:09:40;5.90;99.90
14331;DHT22;7249;49.376;11.080;2024-02-23T05:12:10;5.90;99.90
14331;DHT22;7249;49.376;11.080;2024-02-23T05:14:35;5.80;99.90
14331;DHT22;7249;49.376;11.080;2024-02-23T05:17:01;5.80;99.90
14331;DHT22;7249;49.376;11.080;2024-02-23T05:19:27;5.80;99.90
14331;DHT22;7249;49.376;11.080;2024-02-23T05:21:52;5.70;99.90
14331;DHT22;7249;49.376;11.080;2024-02-23T05:24:18;5.80;99.90
14331;DHT22;7249;49.376;11.080;2024-02-23T05:26:44;5.80;99.90
14331;DHT22;7249;49.376;11.080;2024-02-23T05:29:10;5.80;99.90
14331;DHT22;7249;49.376;11.080;2024-02-23T05:31:46;5.70;99.90
14331;DHT22;7249;49.376;11.080;2024-02-23T05:34:12;5.70;99.90
14331;DHT22;7249;49.376;11.080;2024-02-23T05:36:38;5.70;99.90
14331;DHT22;7249;49.376;11.080;2024-02-23T05:39:03;5.60;99.90
14331;DHT22;7249;49.376;11.080;2024-02-23T05:41:29;5.60;99.90
14331;DHT22;7249;49.376;11.080;2024-02-23T05:43:55;5.60;99.90
14331;DHT22;7249;49.376;11.080;2024-02-23T05:46:21;5.60;99.90
14331;DHT22;7249;49.376;11.080;2024-02-23T05:48:46;5.60;99.90
14331;DHT22;7249;49.376;11.080;2024-02-23T05:51:12;5.60;99.90
14331;DHT22;7249;49.376;11.080;2024-02-23T05:53:38;5.60;99.90
14331;DHT22;7249;49.376;11.080;2024-02-23T05:56:04;5.60;99.90
14331;DHT22;7249;49.376;11.080;2024-02-23T05:58:29;5.50;99.90
14331;DHT22;7249;49.376;11.080;2024-02-23T06:00:55;5.50;99.90
14331;DHT22;7249;49.376;11.080;2024-02-23T06:03:21;5.50;99.90
14331;DHT22;7249;49.376;11.080;2024-02-23T06:05:46;5.50;99.90
14331;DHT22;7249;49.376;11.080;2024-02-23T06:08:12;5.50;99.90
14331;DHT22;7249;49.376;11.080;2024-02-23T06:10:38;5.50;99.90
14331;DHT22;7249;49.376;11.080;2024-02-23T06:13:03;5.40;99.90
14331;DHT22;7249;49.376;11.080;2024-02-23T06:15:29;5.40;99.90
14331;DHT22;7249;49.376;11.080;2024-02-23T06:17:55;5.40;99.90
14331;DHT22;7249;49.376;11.080;2024-02-23T06:20:20;5.40;99.90
14331;DHT22;7249;49.376;11.080;2024-02-23T06:22:46;5.40;99.90
14331;DHT22;7249;49.376;11.080;2024-02-23T06:25:12;5.30;99.90
14331;DHT22;7249;49.376;11.080;2024-02-23T06:27:37;5.30;99.90
14331;DHT22;7249;49.376;11.080;2024-02-23T06:30:04;5.30;99.90
14331;DHT22;7249;49.376;11.080;2024-02-23T06:32:30;5.30;99.90
14331;DHT22;7249;49.376;11.080;2024-02-23T06:34:55;5.30;99.90
14331;DHT22;7249;49.376;11.080;2024-02-23T06:37:21;5.30;99.90
14331;DHT22;7249;49.376;11.080;2024-02-23T06:39:47;5.30;99.90
14331;DHT22;7249;49.376;11.080;2024-02-23T06:42:20;5.40;99.90
14331;DHT22;7249;49.376;11.080;2024-02-23T06:44:46;5.30;99.90
14331;DHT22;7249;49.376;11.080;2024-02-23T06:47:12;5.30;99.90
14331;DHT22;7249;49.376;11.080;2024-02-23T06:49:41;5.40;99.90
14331;DHT22;7249;49.376;11.080;2024-02-23T06:52:09;5.30;99.90
14331;DHT22;7249;49.376;11.080;2024-02-23T06:54:34;5.30;99.90
14331;DHT22;7249;49.376;11.080;2024-02-23T06:57:00;5.40;99.90
14331;DHT22;7249;49.376;11.080;2024-02-23T06:59:26;5.40;99.90
14331;DHT22;7249;49.376;11.080;2024-02-23T07:01:52;5.40;99.90
14331;DHT22;7249;49.376;11.080;2024-02-23T07:04:18;5.40;99.90
14331;DHT22;7249;49.376;11.080;2024-02-23T07:06:44;5.40;99.90
14331;DHT22;7249;49.376;11.080;2024-02-23T07:09:10;5.50;99.90
14331;DHT22;7249;49.376;11.080;2024-02-23T07:11:37;5.50;99.90
14331;DHT22;7249;49.376;11.080;2024-02-23T07:14:03;5.50;99.90
14331;DHT22;7249;49.376;11.080;2024-02-23T07:16:30;5.50;99.90
14331;DHT22;7249;49.376;11.080;2024-02-23T07:18:55;5.60;99.90
14331;DHT22;7249;49.376;11.080;2024-02-23T07:21:22;5.60;99.90
14331;DHT22;7249;49.376;11.080;2024-02-23T07:23:47;5.60;99.90
14331;DHT22;7249;49.376;11.080;2024-02-23T07:26:13;5.70;99.90
14331;DHT22;7249;49.376;11.080;2024-02-23T07:28:39;5.70;99.90
14331;DHT22;7249;49.376;11.080;2024-02-23T07:31:04;5.70;99.90
14331;DHT22;7249;49.376;11.080;2024-02-23T07:33:30;5.80;99.90
14331;DHT22;7249;49.376;11.080;2024-02-23T07:35:56;5.80;99.90
14331;DHT22;7249;49.376;11.080;2024-02-23T07:38:21;5.80;99.90
14331;DHT22;7249;49.376;11.080;2024-02-23T07:40:47;5.80;99.90
14331;DHT22;7249;49.376;11.080;2024-02-23T07:43:13;5.90;99.90
14331;DHT22;7249;49.376;11.080;2024-02-23T07:45:39;6.00;99.90
14331;DHT22;7249;49.376;11.080;2024-02-23T07:48:05;6.00;99.90
14331;DHT22;7249;49.376;11.080;2024-02-23T07:50:31;6.00;99.90
14331;DHT22;7249;49.376;11.080;2024-02-23T07:52:56;6.00;99.90
14331;DHT22;7249;49.376;11.080;2024-02-23T07:55:22;6.00;99.90
14331;DHT22;7249;49.376;11.080;2024-02-23T07:57:48;6.10;99.90
14331;DHT22;7249;49.376;11.080;2024-02-23T08:00:14;6.10;99.90
14331;DHT22;7249;49.376;11.080;2024-02-23T08:02:40;6.10;99.90
14331;DHT22;7249;49.376;11.080;2024-02-23T08:05:08;6.10;99.90
14331;DHT22;7249;49.376;11.080;2024-02-23T08:07:35;6.20;99.90
14331;DHT22;7249;49.376;11.080;2024-02-23T08:10:01;6.20;99.90
14331;DHT22;7249;49.376;11.080;2024-02-23T08:12:28;6.20;99.90
14331;DHT22;7249;49.376;11.080;2024-02-23T08:14:55;6.30;99.90
14331;DHT22;7249;49.376;11.080;2024-02-23T08:17:20;6.40;99.90
14331;DHT22;7249;49.376;11.080;2024-02-23T08:19:46;6.40;99.90
14331;DHT22;7249;49.376;11.080;2024-02-23T08:22:12;6.40;99.90
14331;DHT22;7249;49.376;11.080;2024-02-23T08:24:38;6.40;99.90
14331;DHT22;7249;49.376;11.080;2024-02-23T08:27:04;6.40;99.90
14331;DHT22;7249;49.376;11.080;2024-02-23T08:29:29;6.40;99.90
14331;DHT22;7249;49.376;11.080;2024-02-23T08:31:55;6.50;99.90
14331;DHT22;7249;49.376;11.080;2024-02-23T08:34:21;6.60;99.90
14331;DHT22;7249;49.376;11.080;2024-02-23T08:36:49;6.60;99.90
14331;DHT22;7249;49.376;11.080;2024-02-23T08:39:15;6.80;99.90
14331;DHT22;7249;49.376;11.080;2024-02-23T08:41:41;6.90;99.90
14331;DHT22;7249;49.376;11.080;2024-02-23T08:44:06;7.10;99.90
14331;DHT22;7249;49.376;11.080;2024-02-23T08:46:32;7.20;99.90
14331;DHT22;7249;49.376;11.080;2024-02-23T08:48:58;7.20;99.90
14331;DHT22;7249;49.376;11.080;2024-02-23T08:51:23;7.30;99.90
14331;DHT22;7249;49.376;11.080;2024-02-23T08:53:49;7.30;99.90
14331;DHT22;7249;49.376;11.080;2024-02-23T08:56:15;7.30;99.90
14331;DHT22;7249;49.376;11.080;2024-02-23T08:58:41;7.40;99.90
14331;DHT22;7249;49.376;11.080;2024-02-23T09:01:07;7.40;99.90
14331;DHT22;7249;49.376;11.080;2024-02-23T09:03:34;7.40;99.90
14331;DHT22;7249;49.376;11.080;2024-02-23T09:06:00;7.30;99.90
14331;DHT22;7249;49.376;11.080;2024-02-23T09:08:26;7.40;99.90
14331;DHT22;7249;49.376;11.080;2024-02-23T09:10:51;7.40;99.90
14331;DHT22;7249;49.376;11.080;2024-02-23T09:13:17;7.40;99.90
14331;DHT22;7249;49.376;11.080;2024-02-23T09:15:42;7.30;99.90
14331;DHT22;7249;49.376;11.080;2024-02-23T09:18:08;7.30;99.90
14331;DHT22;7249;49.376;11.080;2024-02-23T09:20:34;7.30;99.90
14331;DHT22;7249;49.376;11.080;2024-02-23T09:23:00;7.20;99.90
14331;DHT22;7249;49.376;11.080;2024-02-23T09:25:25;7.10;99.90
14331;DHT22;7249;49.376;11.080;2024-02-23T09:27:51;7.10;99.90
14331;DHT22;7249;49.376;11.080;2024-02-23T09:30:17;7.20;99.90
14331;DHT22;7249;49.376;11.080;2024-02-23T09:32:42;7.30;99.90
14331;DHT22;7249;49.376;11.080;2024-02-23T09:35:09;7.30;99.90
14331;DHT22;7249;49.376;11.080;2024-02-23T09:37:35;7.30;99.90
14331;DHT22;7249;49.376;11.080;2024-02-23T09:40:01;7.30;99.90
14331;DHT22;7249;49.376;11.080;2024-02-23T09:42:28;7.30;99.90
14331;DHT22;7249;49.376;11.080;2024-02-23T09:45:00;7.40;99.90
14331;DHT22;7249;49.376;11.080;2024-02-23T09:47:27;7.50;99.90
14331;DHT22;7249;49.376;11.080;2024-02-23T09:49:54;7.50;99.90
14331;DHT22;7249;49.376;11.080;2024-02-23T09:52:21;7.50;99.90
14331;DHT22;7249;49.376;11.080;2024-02-23T09:54:47;7.50;99.90
14331;DHT22;7249;49.376;11.080;2024-02-23T09:57:14;7.50;99.90
14331;DHT22;7249;49.376;11.080;2024-02-23T09:59:41;7.50;99.90
14331;DHT22;7249;49.376;11.080;2024-02-23T10:02:15;7.50;99.90
14331;DHT22;7249;49.376;11.080;2024-02-23T10:04:43;7.50;99.90
14331;DHT22;7249;49.376;11.080;2024-02-23T10:07:09;7.50;99.90
14331;DHT22;7249;49.376;11.080;2024-02-23T10:09:35;7.50;99.90
14331;DHT22;7249;49.376;11.080;2024-02-23T10:12:05;7.50;99.90
14331;DHT22;7249;49.376;11.080;2024-02-23T10:14:31;7.50;99.90
14331;DHT22;7249;49.376;11.080;2024-02-23T10:16:57;7.50;99.90
14331;DHT22;7249;49.376;11.080;2024-02-23T10:19:23;7.50;99.90
14331;DHT22;7249;49.376;11.080;2024-02-23T10:21:54;7.50;99.90
14331;DHT22;7249;49.376;11.080;2024-02-23T10:24:20;7.50;99.90
14331;DHT22;7249;49.376;11.080;2024-02-23T10:26:46;7.50;99.90
14331;DHT22;7249;49.376;11.080;2024-02-23T10:29:12;7.50;99.90
14331;DHT22;7249;49.376;11.080;2024-02-23T10:31:38;7.50;99.90
14331;DHT22;7249;49.376;11.080;2024-02-23T10:34:09;7.50;99.90
14331;DHT22;7249;49.376;11.080;2024-02-23T10:36:42;7.60;99.90
14331;DHT22;7249;49.376;11.080;2024-02-23T10:39:08;7.60;99.90
14331;DHT22;7249;49.376;11.080;2024-02-23T10:41:39;7.60;99.90
14331;DHT22;7249;49.376;11.080;2024-02-23T10:44:11;7.70;99.90
14331;DHT22;7249;49.376;11.080;2024-02-23T10:46:37;7.70;99.90
14331;DHT22;7249;49.376;11.080;2024-02-23T10:49:03;7.70;99.90
14331;DHT22;7249;49.376;11.080;2024-02-23T10:51:31;7.70;99.90
14331;DHT22;7249;49.376;11.080;2024-02-23T10:53:57;7.80;99.90
14331;DHT22;7249;49.376;11.080;2024-02-23T10:56:23;7.70;99.90
14331;DHT22;7249;49.376;11.080;2024-02-23T10:58:51;7.70;99.90
14331;DHT22;7249;49.376;11.080;2024-02-23T11:01:17;7.70;99.90
14331;DHT22;7249;49.376;11.080;2024-02-23T11:03:44;7.80;99.90
14331;DHT22;7249;49.376;11.080;2024-02-23T11:06:13;7.90;99.90
14331;DHT22;7249;49.376;11.080;2024-02-23T11:08:39;7.90;99.90
14331;DHT22;7249;49.376;11.080;2024-02-23T11:11:11;7.90;99.90
14331;DHT22;7249;49.376;11.080;2024-02-23T11:13:39;8.00;99.90
14331;DHT22;7249;49.376;11.080;2024-02-23T11:16:07;8.00;99.90
14331;DHT22;7249;49.376;11.080;2024-02-23T11:18:35;8.10;99.90
14331;DHT22;7249;49.376;11.080;2024-02-23T11:21:03;8.20;99.90
14331;DHT22;7249;49.376;11.080;2024-02-23T11:23:56;8.20;99.90
14331;DHT22;7249;49.376;11.080;2024-02-23T11:26:27;8.20;99.90
14331;DHT22;7249;49.376;11.080;2024-02-23T11:28:54;8.30;99.90
14331;DHT22;7249;49.376;11.080;2024-02-23T11:31:21;8.30;99.90
14331;DHT22;7249;49.376;11.080;2024-02-23T11:33:57;8.40;99.90
14331;DHT22;7249;49.376;11.080;2024-02-23T11:38:53;8.40;99.90
14331;DHT22;7249;49.376;11.080;2024-02-23T11:41:25;8.30;99.90
14331;DHT22;7249;49.376;11.080;2024-02-23T11:43:51;8.30;99.90
14331;DHT22;7249;49.376;11.080;2024-02-23T11:46:18;8.30;99.90
14331;DHT22;7249;49.376;11.080;2024-02-23T11:48:44;8.20;99.90
14331;DHT22;7249;49.376;11.080;2024-02-23T11:51:15;8.10;99.90
14331;DHT22;7249;49.376;11.080;2024-02-23T11:53:41;8.00;99.90
14331;DHT22;7249;49.376;11.080;2024-02-23T11:56:07;7.90;99.90
14331;DHT22;7249;49.376;11.080;2024-02-23T11:58:34;7.90;99.90
14331;DHT22;7249;49.376;11.080;2024-02-23T12:01:00;7.90;99.90
14331;DHT22;7249;49.376;11.080;2024-02-23T12:03:28;7.90;99.90
14331;DHT22;7249;49.376;11.080;2024-02-23T12:06:02;7.90;99.90
14331;DHT22;7249;49.376;11.080;2024-02-23T12:08:30;7.90;99.90
14331;DHT22;7249;49.376;11.080;2024-02-23T12:11:06;8.00;99.90
14331;DHT22;7249;49.376;11.080;2024-02-23T12:13:35;8.00;99.90
14331;DHT22;7249;49.376;11.080;2024-02-23T12:16:01;8.10;99.90
14331;DHT22;7249;49.376;11.080;2024-02-23T12:18:28;8.10;99.90
14331;DHT22;7249;49.376;11.080;2024-02-23T12:21:15;8.20;99.90
14331;DHT22;7249;49.376;11.080;2024-02-23T12:23:42;8.20;99.90
14331;DHT22;7249;49.376;11.080;2024-02-23T12:26:09;8.20;99.90
14331;DHT22;7249;49.376;11.080;2024-02-23T12:28:35;8.20;99.90
14331;DHT22;7249;49.376;11.080;2024-02-23T12:31:02;8.00;99.90
14331;DHT22;7249;49.376;11.080;2024-02-23T12:33:35;8.00;99.90
14331;DHT22;7249;49.376;11.080;2024-02-23T12:36:02;8.00;99.90
14331;DHT22;7249;49.376;11.080;2024-02-23T12:38:28;8.00;99.90
14331;DHT22;7249;49.376;11.080;2024-02-23T12:40:54;8.10;99.90
14331;DHT22;7249;49.376;11.080;2024-02-23T12:43:20;8.10;99.90
14331;DHT22;7249;49.376;11.080;2024-02-23T12:45:53;8.10;99.90
14331;DHT22;7249;49.376;11.080;2024-02-23T12:48:20;8.20;99.90
14331;DHT22;7249;49.376;11.080;2024-02-23T12:50:47;8.30;99.90
14331;DHT22;7249;49.376;11.080;2024-02-23T12:53:33;8.20;99.90
14331;DHT22;7249;49.376;11.080;2024-02-23T12:56:07;8.20;99.90
14331;DHT22;7249;49.376;11.080;2024-02-23T12:58:37;8.20;99.90
14331;DHT22;7249;49.376;11.080;2024-02-23T13:01:04;8.20;99.90
14331;DHT22;7249;49.376;11.080;2024-02-23T13:03:31;8.20;99.90
14331;DHT22;7249;49.376;11.080;2024-02-23T13:05:57;8.10;99.90
14331;DHT22;7249;49.376;11.080;2024-02-23T13:08:24;8.20;99.90
14331;DHT22;7249;49.376;11.080;2024-02-23T13:10:51;8.10;99.90
14331;DHT22;7249;49.376;11.080;2024-02-23T13:13:16;8.20;99.90
14331;DHT22;7249;49.376;11.080;2024-02-23T13:15:43;8.20;99.90
14331;DHT22;7249;49.376;11.080;2024-02-23T13:18:09;8.30;99.90
14331;DHT22;7249;49.376;11.080;2024-02-23T13:20:36;8.40;99.90
14331;DHT22;7249;49.376;11.080;2024-02-23T13:23:02;8.30;99.90
14331;DHT22;7249;49.376;11.080;2024-02-23T13:25:28;8.40;99.90
14331;DHT22;7249;49.376;11.080;2024-02-23T13:27:54;8.40;99.90
14331;DHT22;7249;49.376;11.080;2024-02-23T13:30:20;8.40;99.90
14331;DHT22;7249;49.376;11.080;2024-02-23T13:32:45;8.40;99.90
14331;DHT22;7249;49.376;11.080;2024-02-23T13:35:11;8.40;99.90
14331;DHT22;7249;49.376;11.080;2024-02-23T13:37:39;8.30;99.90
14331;DHT22;7249;49.376;11.080;2024-02-23T13:40:06;8.20;99.90
14331;DHT22;7249;49.376;11.080;2024-02-23T13:42:34;8.30;99.90
14331;DHT22;7249;49.376;11.080;2024-02-23T13:45:00;8.30;99.90
14331;DHT22;7249;49.376;11.080;2024-02-23T13:47:26;8.30;99.90
14331;DHT22;7249;49.376;11.080;2024-02-23T13:49:51;8.30;99.90
14331;DHT22;7249;49.376;11.080;2024-02-23T13:52:17;8.30;99.90
14331;DHT22;7249;49.376;11.080;2024-02-23T13:54:43;8.30;99.90
14331;DHT22;7249;49.376;11.080;2024-02-23T13:57:08;8.30;99.90
14331;DHT22;7249;49.376;11.080;2024-02-23T13:59:34;8.30;99.90
14331;DHT22;7249;49.376;11.080;2024-02-23T14:02:00;8.30;99.90
14331;DHT22;7249;49.376;11.080;2024-02-23T14:04:25;8.30;99.90
14331;DHT22;7249;49.376;11.080;2024-02-23T14:06:51;8.30;99.90
14331;DHT22;7249;49.376;11.080;2024-02-23T14:09:17;8.30;99.90
14331;DHT22;7249;49.376;11.080;2024-02-23T14:11:43;8.30;99.90
14331;DHT22;7249;49.376;11.080;2024-02-23T14:14:10;8.20;99.90
14331;DHT22;7249;49.376;11.080;2024-02-23T14:16:36;8.20;99.90
14331;DHT22;7249;49.376;11.080;2024-02-23T14:19:02;8.30;99.90
14331;DHT22;7249;49.376;11.080;2024-02-23T14:21:28;8.30;99.90
14331;DHT22;7249;49.376;11.080;2024-02-23T14:23:54;8.20;99.90
14331;DHT22;7249;49.376;11.080;2024-02-23T14:26:19;8.20;99.90
14331;DHT22;7249;49.376;11.080;2024-02-23T14:28:45;8.20;99.90
14331;DHT22;7249;49.376;11.080;2024-02-23T14:31:11;8.20;99.90
14331;DHT22;7249;49.376;11.080;2024-02-23T14:33:36;8.20;99.90
14331;DHT22;7249;49.376;11.080;2024-02-23T14:36:02;8.20;99.90
14331;DHT22;7249;49.376;11.080;2024-02-23T14:38:28;8.20;99.90
14331;DHT22;7249;49.376;11.080;2024-02-23T14:40:54;8.20;99.90
14331;DHT22;7249;49.376;11.080;2024-02-23T14:43:19;8.20;99.90
14331;DHT22;7249;49.376;11.080;2024-02-23T14:45:45;8.20;99.90
14331;DHT22;7249;49.376;11.080;2024-02-23T14:48:11;8.20;99.90
14331;DHT22;7249;49.376;11.080;2024-02-23T14:50:36;8.30;99.90
14331;DHT22;7249;49.376;11.080;2024-02-23T14:53:02;8.20;99.90
14331;DHT22;7249;49.376;11.080;2024-02-23T14:55:28;8.10;99.90
14331;DHT22;7249;49.376;11.080;2024-02-23T14:57:54;8.00;99.90
14331;DHT22;7249;49.376;11.080;2024-02-23T15:00:21;8.00;99.90
14331;DHT22;7249;49.376;11.080;2024-02-23T15:02:47;7.90;99.90
14331;DHT22;7249;49.376;11.080;2024-02-23T15:05:13;7.80;99.90
14331;DHT22;7249;49.376;11.080;2024-02-23T15:07:39;7.80;99.90
14331;DHT22;7249;49.376;11.080;2024-02-23T15:10:05;7.80;99.90
14331;DHT22;7249;49.376;11.080;2024-02-23T15:12:37;7.70;99.90
14331;DHT22;7249;49.376;11.080;2024-02-23T15:15:03;7.70;99.90
14331;DHT22;7249;49.376;11.080;2024-02-23T15:17:30;7.60;99.90
14331;DHT22;7249;49.376;11.080;2024-02-23T15:19:55;7.60;99.90
14331;DHT22;7249;49.376;11.080;2024-02-23T15:22:21;7.60;99.90
14331;DHT22;7249;49.376;11.080;2024-02-23T15:24:47;7.50;99.90
14331;DHT22;7249;49.376;11.080;2024-02-23T15:27:21;7.50;99.90
14331;DHT22;7249;49.376;11.080;2024-02-23T15:29:46;7.50;99.90
14331;DHT22;7249;49.376;11.080;2024-02-23T15:32:14;7.40;99.90
14331;DHT22;7249;49.376;11.080;2024-02-23T15:34:40;7.40;99.90
14331;DHT22;7249;49.376;11.080;2024-02-23T15:37:06;7.40;99.90
14331;DHT22;7249;49.376;11.080;2024-02-23T15:39:33;7.50;99.90
14331;DHT22;7249;49.376;11.080;2024-02-23T15:41:58;7.50;99.90
14331;DHT22;7249;49.376;11.080;2024-02-23T15:44:24;7.40;99.90